Time;durP1;ratioP1;P1;durP2;ratioP2;P2;SDS_P1;SDS_P2;PMS_P1;PMS_P2;Temp;Humidity;BMP_temperature;BMP_pressure;BME280_temperature;BME280_humidity;BME280_pressure;Samples;Min_cycle;Max_cycle;Signal;HPM_P1;HPM_P2
2022/01/30 00:00:32;;;;;;;;;;;7.40;99.90;;;;;;5027889;28;19922;-83
2022/01/30 00:02:57;;;;;;;;;;;7.30;99.90;;;;;;5017911;28;20023;-83
2022/01/30 00:05:23;;;;;;;;;;;7.30;99.90;;;;;;5025885;28;19917;-83
2022/01/30 00:07:48;;;;;;;;;;;7.30;99.90;;;;;;5015129;28;19921;-83
2022/01/30 00:10:14;;;;;;;;;;;7.30;99.90;;;;;;5019990;28;19941;-83
2022/01/30 00:12:53;;;;;;;;;;;7.20;99.90;;;;;;5025927;28;19940;-83
2022/01/30 00:15:24;;;;;;;;;;;7.20;99.90;;;;;;5009916;28;19968;-83
2022/01/30 00:18:05;;;;;;;;;;;7.10;99.90;;;;;;5018763;28;19929;-83
2022/01/30 00:20:34;;;;;;;;;;;7.10;99.90;;;;;;5011322;28;19917;-83
2022/01/30 00:23:10;;;;;;;;;;;7.10;99.90;;;;;;5011287;28;19914;-83
2022/01/30 00:25:58;;;;;;;;;;;7.00;99.90;;;;;;5016421;28;19955;-82
2022/01/30 00:28:24;;;;;;;;;;;7.00;99.90;;;;;;5016754;28;20341;-83
2022/01/30 00:30:50;;;;;;;;;;;7.00;99.90;;;;;;5032117;28;19917;-84
2022/01/30 00:33:16;;;;;;;;;;;6.90;99.90;;;;;;5027318;28;19925;-83
2022/01/30 00:35:41;;;;;;;;;;;6.90;99.90;;;;;;5041207;28;19976;-83
2022/01/30 00:38:11;;;;;;;;;;;6.90;99.90;;;;;;5025579;28;19974;-83
2022/01/30 00:40:37;;;;;;;;;;;6.90;99.90;;;;;;5016951;28;19953;-83
2022/01/30 00:43:03;;;;;;;;;;;6.80;99.90;;;;;;5019418;28;20392;-83
2022/01/30 00:45:28;;;;;;;;;;;6.80;99.90;;;;;;5028881;28;19914;-84
2022/01/30 00:47:54;;;;;;;;;;;6.80;99.90;;;;;;5016314;28;19925;-83
2022/01/30 00:50:19;;;;;;;;;;;6.70;99.90;;;;;;5029032;28;20000;-83
2022/01/30 00:52:49;;;;;;;;;;;6.70;99.90;;;;;;5026465;28;20534;-82
2022/01/30 00:55:15;;;;;;;;;;;6.60;99.90;;;;;;5016744;28;19913;-83
2022/01/30 00:57:40;;;;;;;;;;;6.60;99.90;;;;;;5025521;28;19985;-83
2022/01/30 01:00:06;;;;;;;;;;;6.60;99.90;;;;;;5014592;28;19914;-82
2022/01/30 01:02:32;;;;;;;;;;;6.60;99.90;;;;;;5016886;28;19917;-83
2022/01/30 01:05:03;;;;;;;;;;;6.60;99.90;;;;;;5021039;28;19914;-83
2022/01/30 01:07:29;;;;;;;;;;;6.60;99.90;;;;;;5031647;28;20001;-84
2022/01/30 01:10:06;;;;;;;;;;;6.50;99.90;;;;;;5020619;28;19929;-83
2022/01/30 01:12:51;;;;;;;;;;;6.50;99.90;;;;;;5031347;28;20011;-83
2022/01/30 01:23:34;;;;;;;;;;;6.50;1.00;;;;;;5017621;28;20047;-84
2022/01/30 01:26:00;;;;;;;;;;;6.50;1.00;;;;;;5017920;28;19935;-84
2022/01/30 01:28:26;;;;;;;;;;;6.50;1.00;;;;;;5012673;28;19917;-83
2022/01/30 01:30:53;;;;;;;;;;;6.40;1.00;;;;;;5015036;28;19952;-84
2022/01/30 01:33:19;;;;;;;;;;;6.40;1.00;;;;;;5011859;28;19920;-84
2022/01/30 01:35:44;;;;;;;;;;;6.40;1.00;;;;;;5015940;28;19985;-83
2022/01/30 01:38:14;;;;;;;;;;;6.40;1.00;;;;;;5015578;28;19948;-84
2022/01/30 01:40:40;;;;;;;;;;;6.40;1.00;;;;;;5016942;28;19914;-83
2022/01/30 01:43:06;;;;;;;;;;;6.30;1.00;;;;;;5019632;28;20481;-84
2022/01/30 01:45:38;;;;;;;;;;;6.30;1.00;;;;;;5018741;28;19945;-84
2022/01/30 01:48:10;;;;;;;;;;;6.20;1.00;;;;;;5021464;28;19914;-84
2022/01/30 01:50:40;;;;;;;;;;;6.20;1.00;;;;;;5028989;28;19940;-83
2022/01/30 01:53:09;;;;;;;;;;;6.20;1.00;;;;;;5017111;28;19921;-83
2022/01/30 01:55:39;;;;;;;;;;;6.20;1.00;;;;;;5020399;28;20054;-83
2022/01/30 01:58:04;;;;;;;;;;;6.10;1.00;;;;;;5020859;28;19996;-83
2022/01/30 02:00:30;;;;;;;;;;;6.10;1.00;;;;;;5017579;28;19963;-85
2022/01/30 02:02:56;;;;;;;;;;;6.10;1.00;;;;;;5012158;28;19949;-84
2022/01/30 02:05:30;;;;;;;;;;;6.10;17.40;;;;;;5019976;28;19992;-83
2022/01/30 02:08:59;;;;;;;;;;;6.00;39.40;;;;;;5019181;28;20373;-83
2022/01/30 02:24:35;;;;;;;;;;;5.90;23.60;;;;;;5016377;28;19921;-83
2022/01/30 02:27:01;;;;;;;;;;;5.90;1.00;;;;;;5019387;28;19924;-83
2022/01/30 02:29:27;;;;;;;;;;;6.00;1.00;;;;;;5020585;28;20421;-83
2022/01/30 02:31:56;;;;;;;;;;;6.00;1.00;;;;;;5018226;28;19953;-83
2022/01/30 02:34:28;;;;;;;;;;;5.90;1.00;;;;;;5028875;28;19921;-84
2022/01/30 02:36:54;;;;;;;;;;;5.90;1.00;;;;;;5018536;28;20366;-84
2022/01/30 02:39:20;;;;;;;;;;;5.90;43.80;;;;;;5032328;28;19967;-84
2022/01/30 02:41:46;;;;;;;;;;;5.80;99.90;;;;;;5017866;28;19913;-83
2022/01/30 02:44:21;;;;;;;;;;;5.80;99.90;;;;;;5016251;28;19924;-83
2022/01/30 02:46:50;;;;;;;;;;;5.80;99.90;;;;;;5018395;28;19920;-84
2022/01/30 02:51:49;;;;;;;;;;;5.80;99.90;;;;;;5018961;28;19925;-83
2022/01/30 02:54:14;;;;;;;;;;;5.80;99.90;;;;;;5018874;28;19917;-83
2022/01/30 02:56:41;;;;;;;;;;;5.80;99.90;;;;;;5014792;28;20494;-81
2022/01/30 02:59:06;;;;;;;;;;;5.80;99.90;;;;;;5018007;28;19960;-83
2022/01/30 03:01:32;;;;;;;;;;;5.80;99.90;;;;;;5020109;28;19917;-84
2022/01/30 03:03:57;;;;;;;;;;;5.70;99.90;;;;;;5026083;28;19914;-84
2022/01/30 03:06:23;;;;;;;;;;;5.70;99.90;;;;;;5019642;28;19967;-83
2022/01/30 03:08:48;;;;;;;;;;;5.70;99.90;;;;;;5017219;28;20421;-84
2022/01/30 03:11:14;;;;;;;;;;;5.70;99.90;;;;;;5015564;28;19925;-84
2022/01/30 03:13:39;;;;;;;;;;;5.70;99.90;;;;;;5016935;28;19921;-84
2022/01/30 03:16:05;;;;;;;;;;;5.70;99.90;;;;;;5018294;28;19960;-82
2022/01/30 03:18:31;;;;;;;;;;;5.70;99.90;;;;;;5019610;28;19914;-83
2022/01/30 03:20:57;;;;;;;;;;;5.60;99.90;;;;;;5013382;28;19991;-83
2022/01/30 03:23:22;;;;;;;;;;;5.70;99.90;;;;;;5017430;28;20392;-83
2022/01/30 03:25:54;;;;;;;;;;;5.60;99.90;;;;;;5017206;28;19913;-83
2022/01/30 03:28:19;;;;;;;;;;;5.60;99.90;;;;;;5019201;28;19956;-82
2022/01/30 03:30:45;;;;;;;;;;;5.60;99.90;;;;;;5025849;28;20341;-83
2022/01/30 03:33:11;;;;;;;;;;;5.60;99.90;;;;;;5022944;28;19936;-82
2022/01/30 03:35:36;;;;;;;;;;;5.50;99.90;;;;;;5012467;28;19917;-83
2022/01/30 03:38:02;;;;;;;;;;;5.50;1.00;;;;;;5018122;28;19917;-82
2022/01/30 03:40:27;;;;;;;;;;;5.50;78.60;;;;;;5018716;28;19913;-82
2022/01/30 03:42:53;;;;;;;;;;;5.40;1.00;;;;;;5012651;28;19917;-83
2022/01/30 03:45:18;;;;;;;;;;;5.40;1.00;;;;;;5018032;28;19914;-83
2022/01/30 03:47:44;;;;;;;;;;;5.40;99.90;;;;;;5016866;28;19976;-82
2022/01/30 03:50:09;;;;;;;;;;;5.40;99.90;;;;;;5017332;28;19913;-82
2022/01/30 03:52:35;;;;;;;;;;;5.40;1.00;;;;;;5015198;28;19913;-82
2022/01/30 03:55:00;;;;;;;;;;;5.40;99.90;;;;;;5017252;28;20398;-84
2022/01/30 03:57:26;;;;;;;;;;;5.40;99.90;;;;;;5018521;28;20647;-83
2022/01/30 03:59:51;;;;;;;;;;;5.40;99.90;;;;;;5018541;28;20419;-82
2022/01/30 04:02:17;;;;;;;;;;;5.30;99.90;;;;;;5015943;28;19914;-83
2022/01/30 04:04:42;;;;;;;;;;;5.30;99.90;;;;;;5017813;28;19913;-82
2022/01/30 04:07:08;;;;;;;;;;;5.30;99.90;;;;;;5018602;28;20011;-83
2022/01/30 04:09:33;;;;;;;;;;;5.30;99.90;;;;;;5012395;28;19921;-82
2022/01/30 04:11:59;;;;;;;;;;;5.30;99.90;;;;;;5018714;28;19973;-82
2022/01/30 04:14:24;;;;;;;;;;;5.20;1.00;;;;;;5017898;28;19982;-82
2022/01/30 04:16:50;;;;;;;;;;;5.20;1.00;;;;;;5017082;28;19952;-83
2022/01/30 04:19:16;;;;;;;;;;;5.20;1.00;;;;;;5020329;28;20020;-83
2022/01/30 04:21:41;;;;;;;;;;;5.20;99.90;;;;;;5021191;28;19914;-82
2022/01/30 04:24:07;;;;;;;;;;;5.20;99.90;;;;;;5016239;28;19964;-82
2022/01/30 04:26:32;;;;;;;;;;;5.20;1.00;;;;;;5019812;28;20273;-83
2022/01/30 04:28:58;;;;;;;;;;;5.20;1.00;;;;;;5022427;28;19929;-83
2022/01/30 04:31:24;;;;;;;;;;;5.20;1.00;;;;;;5023085;28;19939;-83
2022/01/30 04:33:49;;;;;;;;;;;5.20;1.00;;;;;;5015811;28;19924;-83
2022/01/30 04:36:20;;;;;;;;;;;5.20;1.00;;;;;;5017787;28;20000;-83
2022/01/30 04:57:44;;;;;;;;;;;5.50;99.90;;;;;;5012968;28;19920;-83
2022/01/30 05:00:28;;;;;;;;;;;5.60;1.00;;;;;;5016356;28;19914;-83
2022/01/30 05:03:07;;;;;;;;;;;5.60;99.90;;;;;;5015168;28;19913;-83
2022/01/30 05:08:03;;;;;;;;;;;5.70;1.00;;;;;;5015878;28;19924;-82
2022/01/30 05:10:28;;;;;;;;;;;5.60;1.00;;;;;;5016597;28;19913;-83
2022/01/30 05:12:56;;;;;;;;;;;5.60;99.90;;;;;;5014971;28;19910;-84
2022/01/30 05:15:22;;;;;;;;;;;5.60;99.90;;;;;;5018191;28;19924;-83
2022/01/30 05:17:48;;;;;;;;;;;5.50;99.90;;;;;;5031052;28;19910;-83
2022/01/30 05:20:13;;;;;;;;;;;5.50;99.90;;;;;;5018995;28;19914;-83
2022/01/30 05:22:39;;;;;;;;;;;5.40;99.90;;;;;;5019795;28;19909;-83
2022/01/30 05:25:05;;;;;;;;;;;5.40;99.90;;;;;;5016223;28;20004;-83
2022/01/30 05:27:31;;;;;;;;;;;5.40;99.90;;;;;;5020851;28;20265;-83
2022/01/30 05:29:56;;;;;;;;;;;5.40;99.90;;;;;;5025263;28;20297;-83
2022/01/30 05:32:22;;;;;;;;;;;5.30;99.90;;;;;;5020436;28;19918;-83
2022/01/30 05:34:48;;;;;;;;;;;5.30;99.90;;;;;;5019762;28;19997;-83
2022/01/30 05:37:16;;;;;;;;;;;5.30;99.90;;;;;;5020142;28;19914;-83
2022/01/30 05:39:41;;;;;;;;;;;5.30;99.90;;;;;;5020930;28;19987;-82
2022/01/30 05:42:07;;;;;;;;;;;5.30;58.50;;;;;;5016400;28;19913;-82
2022/01/30 05:44:49;;;;;;;;;;;5.30;42.10;;;;;;5019222;28;19913;-83
2022/01/30 05:47:23;;;;;;;;;;;5.30;27.80;;;;;;5020515;28;19933;-83
2022/01/30 05:49:48;;;;;;;;;;;5.20;30.00;;;;;;5020239;28;19914;-84
2022/01/30 05:52:14;;;;;;;;;;;5.20;91.70;;;;;;5019018;28;19922;-83
2022/01/30 05:54:40;;;;;;;;;;;5.20;92.30;;;;;;5019422;28;19996;-84
2022/01/30 05:57:05;;;;;;;;;;;5.20;99.90;;;;;;5020078;28;19917;-83
2022/01/30 05:59:31;;;;;;;;;;;5.20;93.20;;;;;;5007649;28;19979;-83
2022/01/30 06:01:56;;;;;;;;;;;5.10;80.90;;;;;;5016975;28;19914;-83
2022/01/30 06:04:21;;;;;;;;;;;5.10;75.30;;;;;;5015476;28;20416;-83
2022/01/30 06:06:52;;;;;;;;;;;5.10;58.70;;;;;;5018542;28;19928;-83
2022/01/30 06:11:44;;;;;;;;;;;5.10;30.20;;;;;;5019292;28;19940;-82
2022/01/30 06:14:10;;;;;;;;;;;5.00;61.80;;;;;;5018160;28;19931;-82
2022/01/30 06:16:35;;;;;;;;;;;5.00;74.10;;;;;;5019216;28;19914;-83
2022/01/30 06:19:01;;;;;;;;;;;5.00;67.90;;;;;;5019023;28;20204;-83
2022/01/30 06:21:27;;;;;;;;;;;5.00;98.20;;;;;;5014182;28;19917;-83
2022/01/30 06:23:53;;;;;;;;;;;5.00;90.20;;;;;;5017657;28;19913;-81
2022/01/30 06:26:18;;;;;;;;;;;5.00;94.70;;;;;;5027012;28;20293;-82
2022/01/30 06:28:44;;;;;;;;;;;5.00;67.90;;;;;;5017685;28;19913;-82
2022/01/30 06:31:09;;;;;;;;;;;5.00;32.20;;;;;;5018604;28;19918;-82
2022/01/30 06:33:35;;;;;;;;;;;5.00;7.50;;;;;;5016558;28;19914;-82
2022/01/30 06:36:00;;;;;;;;;;;5.00;1.00;;;;;;5019867;28;20453;-82
2022/01/30 06:38:25;;;;;;;;;;;5.00;1.00;;;;;;5019844;28;20294;-82
2022/01/30 06:40:51;;;;;;;;;;;4.90;1.00;;;;;;5018672;28;19952;-83
2022/01/30 06:43:16;;;;;;;;;;;4.90;14.70;;;;;;5018251;28;19923;-83
2022/01/30 06:45:42;;;;;;;;;;;4.90;11.30;;;;;;5018424;28;19914;-84
2022/01/30 06:48:08;;;;;;;;;;;4.90;27.30;;;;;;5023577;28;19910;-83
2022/01/30 06:50:33;;;;;;;;;;;4.90;33.80;;;;;;5023732;28;19924;-83
2022/01/30 06:52:59;;;;;;;;;;;4.90;99.90;;;;;;5017331;28;20188;-83
2022/01/30 06:55:24;;;;;;;;;;;5.00;98.40;;;;;;5018764;28;19913;-82
2022/01/30 06:57:50;;;;;;;;;;;5.10;8.10;;;;;;5018501;28;19924;-83
2022/01/30 07:00:15;;;;;;;;;;;5.10;1.00;;;;;;5020069;28;19920;-83
2022/01/30 07:02:41;;;;;;;;;;;5.20;1.00;;;;;;5019900;28;19976;-83
2022/01/30 07:05:07;;;;;;;;;;;5.20;1.00;;;;;;5019455;28;20013;-83
2022/01/30 07:07:32;;;;;;;;;;;5.20;1.00;;;;;;5021280;28;19952;-83
2022/01/30 07:09:58;;;;;;;;;;;5.10;1.00;;;;;;5019327;28;19913;-83
2022/01/30 07:12:23;;;;;;;;;;;5.10;1.00;;;;;;5026090;28;19944;-83
2022/01/30 07:14:49;;;;;;;;;;;5.10;1.00;;;;;;5026200;28;19921;-84
2022/01/30 07:17:14;;;;;;;;;;;5.10;1.00;;;;;;5029854;28;19921;-84
2022/01/30 07:19:40;;;;;;;;;;;5.10;1.00;;;;;;5028540;28;19913;-84
2022/01/30 07:22:05;;;;;;;;;;;5.10;1.00;;;;;;5017999;28;19925;-84
2022/01/30 07:24:31;;;;;;;;;;;5.10;1.00;;;;;;5020495;28;20008;-84
2022/01/30 07:26:56;;;;;;;;;;;5.10;1.00;;;;;;5018459;28;19917;-83
2022/01/30 07:29:22;;;;;;;;;;;5.10;1.00;;;;;;5020049;28;19967;-83
2022/01/30 07:31:47;;;;;;;;;;;5.20;1.00;;;;;;5015965;28;19925;-84
2022/01/30 07:34:13;;;;;;;;;;;5.20;99.90;;;;;;5019878;28;20370;-83
2022/01/30 07:36:38;;;;;;;;;;;5.30;99.90;;;;;;5018923;28;20370;-84
2022/01/30 07:39:06;;;;;;;;;;;5.30;99.90;;;;;;5017139;28;20009;-83
2022/01/30 07:41:32;;;;;;;;;;;5.40;99.90;;;;;;5016141;28;20378;-83
2022/01/30 07:43:59;;;;;;;;;;;5.40;99.90;;;;;;5018531;28;19913;-84
2022/01/30 07:46:27;;;;;;;;;;;5.50;99.90;;;;;;5015762;28;20272;-84
2022/01/30 07:48:52;;;;;;;;;;;5.70;63.40;;;;;;5020624;28;19937;-84
2022/01/30 07:51:18;;;;;;;;;;;5.70;1.00;;;;;;5018413;28;19917;-84
2022/01/30 07:53:43;;;;;;;;;;;5.70;1.00;;;;;;5019673;28;20273;-83
2022/01/30 07:56:09;;;;;;;;;;;5.70;1.00;;;;;;5016707;28;19956;-83
2022/01/30 07:58:34;;;;;;;;;;;5.70;1.00;;;;;;5018020;28;20016;-83
2022/01/30 08:01:00;;;;;;;;;;;5.70;1.00;;;;;;5018246;28;20378;-84
2022/01/30 08:03:25;;;;;;;;;;;5.70;1.00;;;;;;5019116;28;19914;-83
2022/01/30 08:05:51;;;;;;;;;;;5.70;1.00;;;;;;5018823;28;19917;-84
2022/01/30 08:08:16;;;;;;;;;;;5.80;1.00;;;;;;5014804;28;19921;-83
2022/01/30 08:10:42;;;;;;;;;;;5.90;1.00;;;;;;5013061;28;19921;-83
2022/01/30 08:13:07;;;;;;;;;;;6.00;1.00;;;;;;5020050;28;19916;-84
2022/01/30 08:15:33;;;;;;;;;;;6.10;1.00;;;;;;5018301;28;20001;-83
2022/01/30 08:17:58;;;;;;;;;;;6.20;1.00;;;;;;5008247;28;19913;-83
2022/01/30 08:20:26;;;;;;;;;;;6.60;1.00;;;;;;5030364;28;19914;-83
2022/01/30 08:22:53;;;;;;;;;;;6.70;99.90;;;;;;5019521;28;20345;-83
2022/01/30 08:25:19;;;;;;;;;;;6.80;99.90;;;;;;5025533;28;19921;-84
2022/01/30 08:27:45;;;;;;;;;;;6.80;99.90;;;;;;5012971;28;19913;-83
2022/01/30 08:30:11;;;;;;;;;;;6.80;99.90;;;;;;5017893;28;20005;-83
2022/01/30 08:32:40;;;;;;;;;;;6.80;99.90;;;;;;5009508;28;19917;-83
2022/01/30 08:35:06;;;;;;;;;;;6.70;99.90;;;;;;5012722;28;19924;-83
2022/01/30 08:37:33;;;;;;;;;;;6.80;99.90;;;;;;5014371;28;19956;-83
2022/01/30 08:39:58;;;;;;;;;;;6.80;99.90;;;;;;5015181;28;19964;-83
2022/01/30 08:42:23;;;;;;;;;;;6.80;99.90;;;;;;5024757;28;19914;-83
2022/01/30 08:44:49;;;;;;;;;;;6.80;99.90;;;;;;5017014;28;19920;-83
2022/01/30 08:47:15;;;;;;;;;;;6.70;99.90;;;;;;5019154;28;19936;-83
2022/01/30 08:49:40;;;;;;;;;;;6.80;99.90;;;;;;5018952;28;19914;-82
2022/01/30 08:52:06;;;;;;;;;;;6.70;99.90;;;;;;5020259;28;19944;-83
2022/01/30 08:54:31;;;;;;;;;;;6.80;99.90;;;;;;5029793;28;19928;-82
2022/01/30 08:56:56;;;;;;;;;;;6.80;99.90;;;;;;5015082;28;19914;-82
2022/01/30 08:59:22;;;;;;;;;;;6.80;99.90;;;;;;5034469;28;19984;-83
2022/01/30 09:01:47;;;;;;;;;;;6.90;99.90;;;;;;5019437;28;19913;-82
2022/01/30 09:04:14;;;;;;;;;;;6.90;99.90;;;;;;5019811;28;19914;-81
2022/01/30 09:06:39;;;;;;;;;;;7.10;99.90;;;;;;5022766;28;19945;-83
2022/01/30 09:09:05;;;;;;;;;;;7.40;91.70;;;;;;5019772;28;20004;-84
2022/01/30 09:11:32;;;;;;;;;;;7.90;49.10;;;;;;5030725;28;19921;-85
2022/01/30 09:13:57;;;;;;;;;;;9.50;1.00;;;;;;5018893;28;19951;-85
2022/01/30 09:16:23;;;;;;;;;;;10.40;1.00;;;;;;5026235;28;19914;-84
2022/01/30 09:18:48;;;;;;;;;;;10.70;1.00;;;;;;5021293;28;19920;-85
2022/01/30 09:21:14;;;;;;;;;;;10.80;1.00;;;;;;5024231;28;19914;-84
2022/01/30 09:23:40;;;;;;;;;;;10.70;1.00;;;;;;5019425;28;20267;-84
2022/01/30 09:26:05;;;;;;;;;;;10.40;1.00;;;;;;5014576;28;19936;-84
2022/01/30 09:28:31;;;;;;;;;;;11.70;1.00;;;;;;5018356;28;19921;-84
2022/01/30 09:30:56;;;;;;;;;;;12.10;1.00;;;;;;5015510;28;19918;-84
2022/01/30 09:33:22;;;;;;;;;;;12.50;1.00;;;;;;5029079;28;20444;-84
2022/01/30 09:35:47;;;;;;;;;;;13.60;1.00;;;;;;5017314;28;19922;-84
2022/01/30 09:38:13;;;;;;;;;;;15.00;1.00;;;;;;5010984;28;19917;-85
2022/01/30 09:40:39;;;;;;;;;;;16.00;1.00;;;;;;5022096;28;19921;-84
2022/01/30 09:43:04;;;;;;;;;;;17.30;1.00;;;;;;5018234;28;19925;-85
2022/01/30 09:45:30;;;;;;;;;;;17.70;1.00;;;;;;5020070;28;19996;-84
2022/01/30 09:47:56;;;;;;;;;;;16.70;1.00;;;;;;5022833;28;19980;-84
2022/01/30 09:50:22;;;;;;;;;;;15.60;1.00;;;;;;5022491;28;19913;-83
2022/01/30 09:52:48;;;;;;;;;;;14.90;1.00;;;;;;5056875;23;19978;-84
2022/01/30 09:55:15;;;;;;;;;;;14.10;1.00;;;;;;5055829;28;19979;-86
2022/01/30 09:57:41;;;;;;;;;;;13.40;1.00;;;;;;5056189;28;19913;-85
2022/01/30 10:00:07;;;;;;;;;;;12.70;1.00;;;;;;5054390;28;19913;-84
2022/01/30 10:02:33;;;;;;;;;;;12.00;1.00;;;;;;5049294;28;19927;-83
2022/01/30 10:04:59;;;;;;;;;;;11.50;1.00;;;;;;5057248;28;19952;-85
2022/01/30 10:07:37;;;;;;;;;;;11.50;1.00;;;;;;5053665;28;19913;-87
2022/01/30 10:10:06;;;;;;;;;;;11.50;1.00;;;;;;5057750;28;19952;-85
2022/01/30 10:12:33;;;;;;;;;;;11.50;1.00;;;;;;5063107;28;19928;-82
2022/01/30 10:15:06;;;;;;;;;;;11.70;1.00;;;;;;5050099;28;20305;-86
2022/01/30 10:17:39;;;;;;;;;;;12.20;1.00;;;;;;5045130;28;20400;-85
2022/01/30 10:20:14;;;;;;;;;;;12.10;1.00;;;;;;5042050;28;20289;-86
2022/01/30 10:22:46;;;;;;;;;;;11.80;1.00;;;;;;5041693;28;19917;-85
2022/01/30 10:25:16;;;;;;;;;;;11.90;1.00;;;;;;5042197;28;19909;-86
2022/01/30 10:27:42;;;;;;;;;;;12.00;1.00;;;;;;5042466;28;19910;-86
2022/01/30 10:30:07;;;;;;;;;;;12.30;1.00;;;;;;5039021;28;19920;-83
2022/01/30 10:32:34;;;;;;;;;;;12.00;1.00;;;;;;5039030;28;19948;-83
2022/01/30 10:35:03;;;;;;;;;;;11.80;1.00;;;;;;5038518;28;19909;-84
2022/01/30 10:37:29;;;;;;;;;;;12.00;1.00;;;;;;5039202;28;19909;-83
2022/01/30 10:39:58;;;;;;;;;;;11.70;1.00;;;;;;5041700;28;19961;-85
2022/01/30 10:42:34;;;;;;;;;;;11.60;1.00;;;;;;5040030;28;19917;-83
2022/01/30 10:45:00;;;;;;;;;;;11.60;1.00;;;;;;5038667;28;19963;-84
2022/01/30 10:47:26;;;;;;;;;;;11.70;1.00;;;;;;5040650;28;19909;-84
2022/01/30 10:49:51;;;;;;;;;;;11.60;1.00;;;;;;5039669;28;19913;-84
2022/01/30 10:52:17;;;;;;;;;;;11.30;1.00;;;;;;5039231;28;19976;-84
2022/01/30 10:54:48;;;;;;;;;;;11.40;1.00;;;;;;5055601;28;20423;-84
2022/01/30 10:57:15;;;;;;;;;;;11.20;1.00;;;;;;5059646;28;19913;-84
2022/01/30 10:59:46;;;;;;;;;;;11.00;1.00;;;;;;5059070;28;19909;-84
2022/01/30 11:02:11;;;;;;;;;;;11.00;1.00;;;;;;5057559;28;20342;-82
2022/01/30 11:04:37;;;;;;;;;;;11.00;1.00;;;;;;5057894;28;19975;-84
2022/01/30 11:07:03;;;;;;;;;;;10.90;1.00;;;;;;5056148;28;19913;-86
2022/01/30 11:09:43;;;;;;;;;;;10.90;1.00;;;;;;5058777;28;19918;-86
2022/01/30 11:12:13;;;;;;;;;;;10.80;1.00;;;;;;5059177;28;19948;-83
2022/01/30 11:17:18;;;;;;;;;;;11.30;1.00;;;;;;5052428;28;19919;-86
2022/01/30 11:19:44;;;;;;;;;;;11.50;1.00;;;;;;5059600;28;19897;-86
2022/01/30 11:22:11;;;;;;;;;;;12.10;1.00;;;;;;5056556;28;19916;-85
2022/01/30 11:24:41;;;;;;;;;;;13.10;1.00;;;;;;5060444;28;19913;-85
2022/01/30 11:27:08;;;;;;;;;;;13.40;1.00;;;;;;5059030;28;19915;-82
2022/01/30 11:29:34;;;;;;;;;;;13.50;1.00;;;;;;5057928;28;19916;-85
2022/01/30 11:32:00;;;;;;;;;;;13.20;1.00;;;;;;5050920;28;19944;-85
2022/01/30 11:34:26;;;;;;;;;;;12.40;1.00;;;;;;5051045;28;19923;-84
2022/01/30 11:36:52;;;;;;;;;;;11.70;1.00;;;;;;5059536;28;19909;-83
2022/01/30 11:39:19;;;;;;;;;;;11.40;99.90;;;;;;5060043;28;19978;-86
2022/01/30 11:42:03;;;;;;;;;;;11.30;1.00;;;;;;5060945;28;19920;-83
2022/01/30 11:44:28;;;;;;;;;;;10.90;99.90;;;;;;5060786;28;19919;-85
2022/01/30 11:47:14;;;;;;;;;;;10.70;99.90;;;;;;5060400;28;19909;-85
2022/01/30 11:49:42;;;;;;;;;;;10.60;99.90;;;;;;5047155;28;19944;-83
2022/01/30 11:52:11;;;;;;;;;;;10.70;99.90;;;;;;5059112;28;19936;-86
2022/01/30 11:54:40;;;;;;;;;;;11.80;1.00;;;;;;5060620;28;19912;-84
2022/01/30 11:57:25;;;;;;;;;;;12.30;99.90;;;;;;5059931;28;19962;-86
2022/01/30 11:59:54;;;;;;;;;;;12.70;1.00;;;;;;5045855;28;19909;-84
2022/01/30 12:02:27;;;;;;;;;;;12.30;99.90;;;;;;5059496;28;19909;-84
2022/01/30 12:04:55;;;;;;;;;;;12.80;99.90;;;;;;5059482;28;20479;-84
2022/01/30 12:07:36;;;;;;;;;;;13.00;99.90;;;;;;5060209;28;19909;-85
2022/01/30 12:10:20;;;;;;;;;;;13.20;99.90;;;;;;5059997;28;19909;-84
2022/01/30 12:12:58;;;;;;;;;;;13.50;99.90;;;;;;5058010;28;20277;-84
2022/01/30 12:15:43;;;;;;;;;;;13.30;99.90;;;;;;5059259;28;19916;-84
2022/01/30 12:18:08;;;;;;;;;;;12.50;99.90;;;;;;5059927;28;20270;-86
2022/01/30 12:20:53;;;;;;;;;;;11.60;99.90;;;;;;5060148;28;19916;-83
2022/01/30 12:23:25;;;;;;;;;;;11.10;99.90;;;;;;5058829;28;20293;-83
2022/01/30 12:25:56;;;;;;;;;;;10.70;99.90;;;;;;5058585;28;20343;-85
2022/01/30 12:28:38;;;;;;;;;;;10.50;99.90;;;;;;5059684;28;19915;-85
2022/01/30 12:31:22;;;;;;;;;;;11.70;99.90;;;;;;5059572;28;19913;-86
2022/01/30 12:33:48;;;;;;;;;;;13.10;99.90;;;;;;5058754;28;20003;-86
2022/01/30 12:36:15;;;;;;;;;;;14.50;99.90;;;;;;5059177;28;19944;-84
2022/01/30 12:38:40;;;;;;;;;;;15.20;99.90;;;;;;5057829;28;19959;-86
2022/01/30 12:41:13;;;;;;;;;;;15.40;99.90;;;;;;5059431;28;20385;-86
2022/01/30 12:43:38;;;;;;;;;;;16.00;99.90;;;;;;5058259;28;19916;-84
2022/01/30 12:46:08;;;;;;;;;;;16.80;99.90;;;;;;5058134;28;19909;-84
2022/01/30 12:48:34;;;;;;;;;;;16.70;99.90;;;;;;5057843;28;20380;-84
2022/01/30 12:51:04;;;;;;;;;;;16.70;99.90;;;;;;5057271;28;19912;-84
2022/01/30 12:53:35;;;;;;;;;;;16.60;99.90;;;;;;5058120;28;19923;-84
2022/01/30 12:56:00;;;;;;;;;;;16.00;99.90;;;;;;5058217;28;19996;-84
2022/01/30 12:58:31;;;;;;;;;;;15.50;99.90;;;;;;5060742;28;20273;-84
2022/01/30 13:01:10;;;;;;;;;;;15.00;99.90;;;;;;5057404;28;19964;-83
2022/01/30 13:03:36;;;;;;;;;;;14.80;99.90;;;;;;5054717;28;20336;-83
2022/01/30 13:06:01;;;;;;;;;;;15.20;99.90;;;;;;5049551;28;19951;-84
2022/01/30 13:08:47;;;;;;;;;;;15.60;99.90;;;;;;5047658;28;19952;-84
2022/01/30 13:11:21;;;;;;;;;;;15.20;99.90;;;;;;5053929;28;19913;-84
2022/01/30 13:13:55;;;;;;;;;;;14.90;99.90;;;;;;5053842;28;19913;-84
2022/01/30 13:16:25;;;;;;;;;;;14.20;99.90;;;;;;5057567;28;19916;-83
2022/01/30 13:18:50;;;;;;;;;;;13.80;99.90;;;;;;5057427;28;19916;-83
2022/01/30 13:21:20;;;;;;;;;;;13.70;99.90;;;;;;5055252;28;19909;-83
2022/01/30 13:23:46;;;;;;;;;;;13.80;99.90;;;;;;5052790;28;19913;-83
2022/01/30 13:26:11;;;;;;;;;;;13.40;99.90;;;;;;5048865;28;19912;-83
2022/01/30 13:28:36;;;;;;;;;;;13.20;99.90;;;;;;5056536;28;19913;-83
2022/01/30 13:31:14;;;;;;;;;;;13.40;99.90;;;;;;5057109;28;19956;-83
2022/01/30 13:33:40;;;;;;;;;;;13.60;99.90;;;;;;5056569;28;19909;-83
2022/01/30 13:36:05;;;;;;;;;;;13.30;99.90;;;;;;5058495;28;19955;-83
2022/01/30 13:38:39;;;;;;;;;;;12.80;99.90;;;;;;5059601;28;19959;-83
2022/01/30 13:41:05;;;;;;;;;;;12.90;99.90;;;;;;5055967;28;19913;-84
2022/01/30 13:43:35;;;;;;;;;;;13.20;99.90;;;;;;5050687;28;19909;-83
2022/01/30 13:48:45;;;;;;;;;;;12.80;99.90;;;;;;5059609;28;19916;-83
2022/01/30 13:51:10;;;;;;;;;;;12.80;99.90;;;;;;5057292;28;19921;-84
2022/01/30 13:53:37;;;;;;;;;;;13.00;99.90;;;;;;5059047;28;19928;-83
2022/01/30 13:56:07;;;;;;;;;;;12.50;99.90;;;;;;5058645;28;19909;-84
2022/01/30 13:58:43;;;;;;;;;;;12.00;99.90;;;;;;5058979;28;20000;-83
2022/01/30 14:01:10;;;;;;;;;;;11.60;99.90;;;;;;5059220;28;20019;-83
2022/01/30 14:03:37;;;;;;;;;;;11.20;99.90;;;;;;5058571;28;19912;-83
2022/01/30 14:06:02;;;;;;;;;;;11.40;99.90;;;;;;5060704;28;20022;-84
2022/01/30 14:08:28;;;;;;;;;;;11.50;99.90;;;;;;5060556;28;19913;-84
2022/01/30 14:11:06;;;;;;;;;;;11.80;99.90;;;;;;5059005;28;19912;-83
2022/01/30 14:13:37;;;;;;;;;;;11.70;99.90;;;;;;5057829;28;19915;-83
2022/01/30 14:16:07;;;;;;;;;;;11.90;99.90;;;;;;5059379;28;19913;-84
2022/01/30 14:18:44;;;;;;;;;;;12.30;99.90;;;;;;5059695;28;19916;-83
2022/01/30 14:21:16;;;;;;;;;;;12.30;99.90;;;;;;5058997;28;19962;-84
2022/01/30 14:23:41;;;;;;;;;;;11.90;99.90;;;;;;5058915;28;19999;-83
2022/01/30 14:26:20;;;;;;;;;;;11.70;99.90;;;;;;5058910;28;19956;-83
2022/01/30 14:28:45;;;;;;;;;;;11.40;99.90;;;;;;5059819;28;20448;-84
2022/01/30 14:31:18;;;;;;;;;;;11.40;99.90;;;;;;5059271;28;19948;-83
2022/01/30 14:33:44;;;;;;;;;;;11.60;99.90;;;;;;5058671;28;19912;-83
2022/01/30 14:36:09;;;;;;;;;;;11.80;99.90;;;;;;5057341;28;19948;-84
2022/01/30 14:38:41;;;;;;;;;;;12.00;99.90;;;;;;5058672;28;19950;-84
2022/01/30 14:41:07;;;;;;;;;;;12.30;99.90;;;;;;5059430;28;19909;-84
2022/01/30 14:43:32;;;;;;;;;;;12.50;99.90;;;;;;5059803;28;19964;-84
2022/01/30 14:45:58;;;;;;;;;;;12.80;99.90;;;;;;5059210;28;19939;-84
2022/01/30 14:48:23;;;;;;;;;;;13.00;99.90;;;;;;5058875;28;19916;-84
2022/01/30 14:50:49;;;;;;;;;;;12.80;99.90;;;;;;5060108;28;19917;-84
2022/01/30 14:53:14;;;;;;;;;;;12.60;99.90;;;;;;5059607;28;20456;-84
2022/01/30 14:55:40;;;;;;;;;;;12.20;99.90;;;;;;5060075;28;20549;-84
2022/01/30 14:58:05;;;;;;;;;;;11.80;99.90;;;;;;5049762;28;19913;-84
2022/01/30 15:00:31;;;;;;;;;;;11.70;99.90;;;;;;5053941;28;19955;-83
2022/01/30 15:02:56;;;;;;;;;;;11.50;99.90;;;;;;5059727;28;19909;-84
2022/01/30 15:05:22;;;;;;;;;;;11.40;99.90;;;;;;5060171;28;19956;-83
2022/01/30 15:07:47;;;;;;;;;;;11.40;99.90;;;;;;5060413;28;19919;-84
2022/01/30 15:10:14;;;;;;;;;;;11.20;99.90;;;;;;5059304;28;19915;-85
2022/01/30 15:12:41;;;;;;;;;;;11.10;99.90;;;;;;5061325;28;19994;-84
2022/01/30 15:15:07;;;;;;;;;;;10.90;99.90;;;;;;5058257;28;19908;-84
2022/01/30 15:17:35;;;;;;;;;;;10.60;99.90;;;;;;5044700;28;19909;-85
2022/01/30 15:20:04;;;;;;;;;;;10.40;99.90;;;;;;5060600;28;19909;-83
2022/01/30 15:22:31;;;;;;;;;;;10.20;99.90;;;;;;5060007;28;19912;-84
2022/01/30 15:24:57;;;;;;;;;;;10.10;99.90;;;;;;5061340;28;19916;-84